createdAt,value
2017-06-15T00:00:01.117Z,17.2
2017-06-15T00:00:05.553Z,17.28
2017-06-15T00:00:09.978Z,17.27
2017-06-15T00:00:14.401Z,17.24
2017-06-15T00:00:18.823Z,17.21
2017-06-15T00:00:23.247Z,17.25
2017-06-15T00:00:27.550Z,17.21
2017-06-15T00:00:31.974Z,17.24
2017-06-15T00:00:36.396Z,17.17
2017-06-15T00:00:40.703Z,17.18
2017-06-15T00:00:45.125Z,17.15
2017-06-15T00:00:49.552Z,17.22
2017-06-15T00:00:53.874Z,17.17
2017-06-15T00:00:58.177Z,17.17
2017-06-15T00:01:02.604Z,17.14
2017-06-15T00:01:06.673Z,17.15
2017-06-15T00:01:11.096Z,17.14
2017-06-15T00:01:15.291Z,17.17
2017-06-15T00:01:19.718Z,17.17
2017-06-15T00:01:24.025Z,17.15
2017-06-15T00:01:28.335Z,17.12
2017-06-15T00:01:32.756Z,17.12
2017-06-15T00:01:37.184Z,17.21
2017-06-15T00:01:41.609Z,17.2
2017-06-15T00:01:45.912Z,17.18
2017-06-15T00:01:50.216Z,17.03
2017-06-15T00:01:54.637Z,17.1
2017-06-15T00:01:59.059Z,17.1
2017-06-15T00:02:03.368Z,17.17
2017-06-15T00:02:07.678Z,17.07
2017-06-15T00:02:12.098Z,17.06
2017-06-15T00:02:16.400Z,17.15
2017-06-15T00:02:20.820Z,17.1
2017-06-15T00:02:25.246Z,17.07
2017-06-15T00:02:29.665Z,17.06
2017-06-15T00:02:33.968Z,17.02
2017-06-15T00:02:38.388Z,17.1
2017-06-15T00:02:42.814Z,17.02
2017-06-15T00:02:47.237Z,17.09
2017-06-15T00:02:51.667Z,16.98
2017-06-15T00:02:55.981Z,17.05
2017-06-15T00:03:00.403Z,17.07
2017-06-15T00:03:04.829Z,17.05
2017-06-15T00:03:09.255Z,17.09
2017-06-15T00:03:13.569Z,17.05
2017-06-15T00:03:17.993Z,16.96
2017-06-15T00:03:22.416Z,17.03
2017-06-15T00:03:26.842Z,17
2017-06-15T00:03:31.269Z,17.05
2017-06-15T00:03:35.694Z,17.05
2017-06-15T00:03:39.888Z,17.03
2017-06-15T00:03:44.308Z,16.98
2017-06-15T00:03:48.736Z,16.99
2017-06-15T00:03:53.157Z,17.03
2017-06-15T00:03:57.582Z,16.96
2017-06-15T00:04:02.006Z,17.05
2017-06-15T00:04:06.320Z,16.98
2017-06-15T00:04:10.629Z,17
2017-06-15T00:04:14.931Z,17
2017-06-15T00:04:19.233Z,16.98
2017-06-15T00:04:23.656Z,17.05
2017-06-15T00:04:28.101Z,16.99
2017-06-15T00:04:32.298Z,16.92
2017-06-15T00:04:36.717Z,16.9
2017-06-15T00:04:41.018Z,16.87
2017-06-15T00:04:45.324Z,16.91
2017-06-15T00:04:49.750Z,16.9
2017-06-15T00:04:54.176Z,16.91
2017-06-15T00:04:58.632Z,16.99
2017-06-15T00:05:02.938Z,17.02
2017-06-15T00:05:07.126Z,17.03
2017-06-15T00:05:11.547Z,17.02
2017-06-15T00:05:15.860Z,16.95
2017-06-15T00:05:20.282Z,16.98
2017-06-15T00:05:24.592Z,17.05
2017-06-15T00:05:29.013Z,16.82
2017-06-15T00:05:33.433Z,16.87
2017-06-15T00:05:37.851Z,16.98
2017-06-15T00:05:42.276Z,16.92
2017-06-15T00:05:46.710Z,16.98
2017-06-15T00:05:51.135Z,16.82
2017-06-15T00:05:55.561Z,16.96
2017-06-15T00:05:59.989Z,16.87
2017-06-15T00:06:04.294Z,16.95
2017-06-15T00:06:08.596Z,16.85
2017-06-15T00:06:12.901Z,16.92
2017-06-15T00:06:17.332Z,16.95
2017-06-15T00:06:21.757Z,16.9
2017-06-15T00:06:26.183Z,16.88
2017-06-15T00:06:30.608Z,16.9
2017-06-15T00:06:35.027Z,16.9
2017-06-15T00:06:39.333Z,16.91
2017-06-15T00:06:43.799Z,16.92
2017-06-15T00:06:48.222Z,16.87
2017-06-15T00:06:52.646Z,16.87
2017-06-15T00:06:57.067Z,16.84
2017-06-15T00:07:01.490Z,16.85
2017-06-15T00:07:06.221Z,16.84
2017-06-15T00:07:10.528Z,16.84
2017-06-15T00:07:14.946Z,16.82
2017-06-15T00:07:19.370Z,16.88
2017-06-15T00:07:23.797Z,16.8
2017-06-15T00:07:28.228Z,16.8
2017-06-15T00:07:32.660Z,16.87
2017-06-15T00:07:37.087Z,16.81
2017-06-15T00:07:41.507Z,16.8
2017-06-15T00:07:45.926Z,16.77
2017-06-15T00:07:50.350Z,16.8
2017-06-15T00:07:54.541Z,16.78
2017-06-15T00:07:58.965Z,16.81
2017-06-15T00:08:03.566Z,16.77
2017-06-15T00:08:07.986Z,16.7
2017-06-15T00:08:12.291Z,16.77
2017-06-15T00:08:16.605Z,16.73
2017-06-15T00:08:21.059Z,16.72
2017-06-15T00:08:25.364Z,16.75
2017-06-15T00:08:29.782Z,16.69
2017-06-15T00:08:34.202Z,16.72
2017-06-15T00:08:38.623Z,16.69
2017-06-15T00:08:42.815Z,16.63
2017-06-15T00:08:47.272Z,16.73
2017-06-15T00:08:51.582Z,16.72
2017-06-15T00:08:56.002Z,16.67
2017-06-15T00:09:00.307Z,16.69
2017-06-15T00:09:04.728Z,16.67
2017-06-15T00:09:09.157Z,16.66
2017-06-15T00:09:13.502Z,16.7
2017-06-15T00:09:17.921Z,16.65
2017-06-15T00:09:22.338Z,16.73
2017-06-15T00:09:26.647Z,16.65
2017-06-15T00:09:30.724Z,16.67
2017-06-15T00:09:35.149Z,16.7
2017-06-15T00:09:39.575Z,16.63
2017-06-15T00:09:44.010Z,16.65
2017-06-15T00:09:48.436Z,16.65
2017-06-15T00:09:52.857Z,16.6
2017-06-15T00:09:57.282Z,16.57
2017-06-15T00:10:01.603Z,16.63
2017-06-15T00:10:05.795Z,16.55
2017-06-15T00:10:09.984Z,16.6
2017-06-15T00:10:14.174Z,16.55
2017-06-15T00:10:18.374Z,16.6
2017-06-15T00:10:22.806Z,16.57
2017-06-15T00:10:27.110Z,16.6
2017-06-15T00:10:31.532Z,16.57
2017-06-15T00:10:35.832Z,16.66
2017-06-15T00:10:40.141Z,16.48
2017-06-15T00:10:44.566Z,16.54
2017-06-15T00:10:48.991Z,16.55
2017-06-15T00:10:53.410Z,16.6
2017-06-15T00:10:57.827Z,16.52
2017-06-15T00:11:02.248Z,16.52
2017-06-15T00:11:06.680Z,16.52
2017-06-15T00:11:10.990Z,16.48
2017-06-15T00:11:15.175Z,16.52
2017-06-15T00:11:19.597Z,16.54
2017-06-15T00:11:24.016Z,16.55
2017-06-15T00:11:28.466Z,16.48
2017-06-15T00:11:32.890Z,16.51
2017-06-15T00:11:37.199Z,16.45
2017-06-15T00:11:41.624Z,16.5
2017-06-15T00:11:46.046Z,16.48
2017-06-15T00:11:50.360Z,16.44
2017-06-15T00:11:54.784Z,16.5
2017-06-15T00:11:59.204Z,16.48
2017-06-15T00:12:03.412Z,16.45
2017-06-15T00:12:07.838Z,16.44
2017-06-15T00:12:12.146Z,16.51
2017-06-15T00:12:16.487Z,16.48
2017-06-15T00:12:20.908Z,16.4
2017-06-15T00:12:25.479Z,16.44
2017-06-15T00:12:29.781Z,16.45
2017-06-15T00:12:34.202Z,16.44
2017-06-15T00:12:38.510Z,16.51
2017-06-15T00:12:42.932Z,16.51
2017-06-15T00:12:47.357Z,16.48
2017-06-15T00:12:51.784Z,16.47
2017-06-15T00:12:56.213Z,16.47
2017-06-15T00:13:00.522Z,16.36
2017-06-15T00:13:04.777Z,16.47
2017-06-15T00:13:09.198Z,16.37
2017-06-15T00:13:13.631Z,16.36
2017-06-15T00:13:18.050Z,16.36
2017-06-15T00:13:22.472Z,16.37
2017-06-15T00:13:26.906Z,16.37
2017-06-15T00:13:31.336Z,16.3
2017-06-15T00:13:35.758Z,16.4
2017-06-15T00:13:40.174Z,16.37
2017-06-15T00:13:44.597Z,16.48
2017-06-15T00:13:49.023Z,16.34
2017-06-15T00:13:53.448Z,16.34
2017-06-15T00:13:57.866Z,16.3
2017-06-15T00:14:02.170Z,16.42
2017-06-15T00:14:06.475Z,16.4
2017-06-15T00:14:10.784Z,16.4
2017-06-15T00:14:15.100Z,16.42
2017-06-15T00:14:19.520Z,16.34
2017-06-15T00:14:23.954Z,16.32
2017-06-15T00:14:28.372Z,16.4
2017-06-15T00:14:32.795Z,16.36
2017-06-15T00:14:37.220Z,16.33
2017-06-15T00:14:41.411Z,16.34
2017-06-15T00:14:45.839Z,16.37
2017-06-15T00:14:50.260Z,16.41
2017-06-15T00:14:54.681Z,16.41
2017-06-15T00:14:58.872Z,16.36
2017-06-15T00:15:03.601Z,16.36
2017-06-15T00:15:08.036Z,16.36
2017-06-15T00:15:12.460Z,16.33
2017-06-15T00:15:16.773Z,16.36
2017-06-15T00:15:21.201Z,16.23
2017-06-15T00:15:25.627Z,16.3
2017-06-15T00:15:30.069Z,16.32
2017-06-15T00:15:34.497Z,16.37
2017-06-15T00:15:38.917Z,16.33
2017-06-15T00:15:43.224Z,16.29
2017-06-15T00:15:47.646Z,16.32
2017-06-15T00:15:51.957Z,16.34
2017-06-15T00:15:56.183Z,16.18
2017-06-15T00:16:00.605Z,16.32
2017-06-15T00:16:05.027Z,16.23
2017-06-15T00:16:09.346Z,16.29
2017-06-15T00:16:13.773Z,16.33
2017-06-15T00:16:18.190Z,16.27
2017-06-15T00:16:22.608Z,16.32
2017-06-15T00:16:27.027Z,16.26
2017-06-15T00:16:31.472Z,16.25
2017-06-15T00:16:35.901Z,16.27
2017-06-15T00:16:40.204Z,16.26
2017-06-15T00:16:44.625Z,16.22
2017-06-15T00:16:49.049Z,16.27
2017-06-15T00:16:53.473Z,16.33
2017-06-15T00:16:57.935Z,16.23
2017-06-15T00:17:02.416Z,16.17
2017-06-15T00:17:06.717Z,16.13
2017-06-15T00:17:11.018Z,16.25
2017-06-15T00:17:15.439Z,16.13
2017-06-15T00:17:19.747Z,16.23
2017-06-15T00:17:24.174Z,16.23
2017-06-15T00:17:28.597Z,16.16
2017-06-15T00:17:33.018Z,16.22
2017-06-15T00:17:37.440Z,16.23
2017-06-15T00:17:41.868Z,16.16
2017-06-15T00:17:46.329Z,16.14
2017-06-15T00:17:50.758Z,16.22
2017-06-15T00:17:55.177Z,16.17
2017-06-15T00:17:59.484Z,16.16
2017-06-15T00:18:03.954Z,16.16
2017-06-15T00:18:08.147Z,16.16
2017-06-15T00:18:12.456Z,16.22
2017-06-15T00:18:16.762Z,16.25
2017-06-15T00:18:21.190Z,16.18
2017-06-15T00:18:25.494Z,16.22
2017-06-15T00:18:29.911Z,16.13
2017-06-15T00:18:34.340Z,16.17
2017-06-15T00:18:38.675Z,16.17
2017-06-15T00:18:43.092Z,16.22
2017-06-15T00:18:47.396Z,16.08
2017-06-15T00:18:51.701Z,16.16
2017-06-15T00:18:56.132Z,16.14
2017-06-15T00:19:00.567Z,16.17
2017-06-15T00:19:05.188Z,16.11
2017-06-15T00:19:09.616Z,16.17
2017-06-15T00:19:14.036Z,16.17
2017-06-15T00:19:18.339Z,16.11
2017-06-15T00:19:22.768Z,16.11
2017-06-15T00:19:27.073Z,16.13
2017-06-15T00:19:31.381Z,16.17
2017-06-15T00:19:35.802Z,16.13
2017-06-15T00:19:40.113Z,16.17
2017-06-15T00:19:44.538Z,16.11
2017-06-15T00:19:48.962Z,16.11
2017-06-15T00:19:53.382Z,16.13
2017-06-15T00:19:57.804Z,16.1
2017-06-15T00:20:02.457Z,16.13
2017-06-15T00:20:06.883Z,16.04
2017-06-15T00:20:11.227Z,16.03
2017-06-15T00:20:15.649Z,16.1
2017-06-15T00:20:20.068Z,16.08
2017-06-15T00:20:24.486Z,16.14
2017-06-15T00:20:28.920Z,16.03
2017-06-15T00:20:33.344Z,16.01
2017-06-15T00:20:37.656Z,16.17
2017-06-15T00:20:42.078Z,16.11
2017-06-15T00:20:46.388Z,16.04
2017-06-15T00:20:50.814Z,16.01
2017-06-15T00:20:55.240Z,16.14
2017-06-15T00:20:59.665Z,16.06
2017-06-15T00:21:04.473Z,16.06
2017-06-15T00:21:08.901Z,16.06
2017-06-15T00:21:13.091Z,16.07
2017-06-15T00:21:17.405Z,16.1
2017-06-15T00:21:21.829Z,16.07
2017-06-15T00:21:26.018Z,16.04
2017-06-15T00:21:30.223Z,16.01
2017-06-15T00:21:34.651Z,16.07
2017-06-15T00:21:39.077Z,16.01
2017-06-15T00:21:43.502Z,16.04
2017-06-15T00:21:47.920Z,16.04
2017-06-15T00:21:52.340Z,16.04
2017-06-15T00:21:56.758Z,16.04
2017-06-15T00:22:01.179Z,15.98
2017-06-15T00:22:05.373Z,16.07
2017-06-15T00:22:09.677Z,16.04
2017-06-15T00:22:14.100Z,16.06
2017-06-15T00:22:18.168Z,16.08
2017-06-15T00:22:22.467Z,16.03
2017-06-15T00:22:26.896Z,16.06
2017-06-15T00:22:31.321Z,15.99
2017-06-15T00:22:35.740Z,16.04
2017-06-15T00:22:40.162Z,15.95
2017-06-15T00:22:44.584Z,16.06
2017-06-15T00:22:49.007Z,16.03
2017-06-15T00:22:53.446Z,15.99
2017-06-15T00:22:57.873Z,16.06
2017-06-15T00:23:02.187Z,16.06
2017-06-15T00:23:06.380Z,16.07
2017-06-15T00:23:10.680Z,16.01
2017-06-15T00:23:15.103Z,16.01
2017-06-15T00:23:19.527Z,15.98
2017-06-15T00:23:23.835Z,16.03
2017-06-15T00:23:28.161Z,16.01
2017-06-15T00:23:32.585Z,16.04
2017-06-15T00:23:37.012Z,16.07
2017-06-15T00:23:41.437Z,16.06
2017-06-15T00:23:45.741Z,16.01
2017-06-15T00:23:50.164Z,16.03
2017-06-15T00:23:54.589Z,16.03
2017-06-15T00:23:58.895Z,15.98
2017-06-15T00:24:03.091Z,16.03
2017-06-15T00:24:07.546Z,16.08
2017-06-15T00:24:11.970Z,15.95
2017-06-15T00:24:16.277Z,16.1
2017-06-15T00:24:20.696Z,16.01
2017-06-15T00:24:25.006Z,16.01
2017-06-15T00:24:29.314Z,15.98
2017-06-15T00:24:33.733Z,16.01
2017-06-15T00:24:38.154Z,15.98
2017-06-15T00:24:42.579Z,16.03
2017-06-15T00:24:47.003Z,16.03
2017-06-15T00:24:51.322Z,15.96
2017-06-15T00:24:55.751Z,15.99
2017-06-15T00:25:00.174Z,16.01
2017-06-15T00:25:04.686Z,15.98
2017-06-15T00:25:09.107Z,16.04
2017-06-15T00:25:13.538Z,16.08
2017-06-15T00:25:17.845Z,15.98
2017-06-15T00:25:22.269Z,16.07
2017-06-15T00:25:26.578Z,16.01
2017-06-15T00:25:31.018Z,16.01
2017-06-15T00:25:35.441Z,15.99
2017-06-15T00:25:39.632Z,16.01
2017-06-15T00:25:44.082Z,15.99
2017-06-15T00:25:48.509Z,16.01
2017-06-15T00:25:52.929Z,16.03
2017-06-15T00:25:57.346Z,15.99
2017-06-15T00:26:02.023Z,15.96
2017-06-15T00:26:06.452Z,16.03
2017-06-15T00:26:10.881Z,16.07
2017-06-15T00:26:15.062Z,15.99
2017-06-15T00:26:19.369Z,15.98
2017-06-15T00:26:23.794Z,15.99
2017-06-15T00:26:28.004Z,16.04
2017-06-15T00:26:32.433Z,16.08
2017-06-15T00:26:36.851Z,15.98
2017-06-15T00:26:41.278Z,16.07
2017-06-15T00:26:45.585Z,16.07
2017-06-15T00:26:50.019Z,15.95
2017-06-15T00:26:54.446Z,16.03
2017-06-15T00:26:58.872Z,15.99
2017-06-15T00:27:03.229Z,15.96
2017-06-15T00:27:07.530Z,16.06
2017-06-15T00:27:11.957Z,15.99
2017-06-15T00:27:16.035Z,16.14
2017-06-15T00:27:20.462Z,15.99
2017-06-15T00:27:24.764Z,15.93
2017-06-15T00:27:29.240Z,16.03
2017-06-15T00:27:33.545Z,16.13
2017-06-15T00:27:37.863Z,15.96
2017-06-15T00:27:42.285Z,16.04
2017-06-15T00:27:46.710Z,16.1
2017-06-15T00:27:51.133Z,16.06
2017-06-15T00:27:55.558Z,16.06
2017-06-15T00:27:59.982Z,16.01
2017-06-15T00:28:04.176Z,16.1
2017-06-15T00:28:08.598Z,16.1
2017-06-15T00:28:13.019Z,16.1
2017-06-15T00:28:17.211Z,16.06
2017-06-15T00:28:21.629Z,16.04
2017-06-15T00:28:25.843Z,15.98
2017-06-15T00:28:30.297Z,15.99
2017-06-15T00:28:34.597Z,15.98
2017-06-15T00:28:39.014Z,15.96
2017-06-15T00:28:43.438Z,16.07
2017-06-15T00:28:47.885Z,16.1
2017-06-15T00:28:51.957Z,16.06
2017-06-15T00:28:56.380Z,15.98
2017-06-15T00:29:00.799Z,16.11
2017-06-15T00:29:05.105Z,16.07
2017-06-15T00:29:09.534Z,15.99
2017-06-15T00:29:13.961Z,16.1
2017-06-15T00:29:18.153Z,16.01
2017-06-15T00:29:22.573Z,16.07
2017-06-15T00:29:26.994Z,15.98
2017-06-15T00:29:31.422Z,16.06
2017-06-15T00:29:35.848Z,16.07
2017-06-15T00:29:39.921Z,15.98
2017-06-15T00:29:44.225Z,16.01
2017-06-15T00:29:48.650Z,16.04
2017-06-15T00:29:53.073Z,16.06
2017-06-15T00:29:57.495Z,15.91
2017-06-15T00:30:02.173Z,15.96
2017-06-15T00:30:06.367Z,16.11
2017-06-15T00:30:10.793Z,16.04
2017-06-15T00:30:15.095Z,15.98
2017-06-15T00:30:19.522Z,16.01
2017-06-15T00:30:23.837Z,16.01
2017-06-15T00:30:28.029Z,15.98
2017-06-15T00:30:32.336Z,15.98
2017-06-15T00:30:36.640Z,15.98
2017-06-15T00:30:41.062Z,16.11
2017-06-15T00:30:45.483Z,15.95
2017-06-15T00:30:49.909Z,15.98
2017-06-15T00:30:54.346Z,16.07
2017-06-15T00:30:58.645Z,16.11
2017-06-15T00:31:03.218Z,16.1
2017-06-15T00:31:07.640Z,16.1
2017-06-15T00:31:12.063Z,15.92
2017-06-15T00:31:16.246Z,15.98
2017-06-15T00:31:20.663Z,16.04
2017-06-15T00:31:25.086Z,15.99
2017-06-15T00:31:29.524Z,16.07
2017-06-15T00:31:33.834Z,16.13
2017-06-15T00:31:38.253Z,16.13
2017-06-15T00:31:42.674Z,15.96
2017-06-15T00:31:47.110Z,16.1
2017-06-15T00:31:51.530Z,16.03
2017-06-15T00:31:55.956Z,16.1
2017-06-15T00:32:00.384Z,15.99
2017-06-15T00:32:05.045Z,15.98
2017-06-15T00:32:09.472Z,16.04
2017-06-15T00:32:13.895Z,15.96
2017-06-15T00:32:18.318Z,15.99
2017-06-15T00:32:22.631Z,15.99
2017-06-15T00:32:27.056Z,16.1
2017-06-15T00:32:31.374Z,16.01
2017-06-15T00:32:35.800Z,16.03
2017-06-15T00:32:40.105Z,15.99
2017-06-15T00:32:44.527Z,16.03
2017-06-15T00:32:48.985Z,15.99
2017-06-15T00:32:53.169Z,15.95
2017-06-15T00:32:57.588Z,16.04
2017-06-15T00:33:02.308Z,16.04
2017-06-15T00:33:06.726Z,15.96
2017-06-15T00:33:11.154Z,15.99
2017-06-15T00:33:15.616Z,15.99
2017-06-15T00:33:20.035Z,15.99
2017-06-15T00:33:24.334Z,16.04
2017-06-15T00:33:28.775Z,15.99
2017-06-15T00:33:33.202Z,16.06
2017-06-15T00:33:37.622Z,15.99
2017-06-15T00:33:41.802Z,15.98
2017-06-15T00:33:46.225Z,16.06
2017-06-15T00:33:50.650Z,16.03
2017-06-15T00:33:55.072Z,16.04
2017-06-15T00:33:59.508Z,16.08
2017-06-15T00:34:03.813Z,15.99
2017-06-15T00:34:08.237Z,15.96
2017-06-15T00:34:12.674Z,15.98
2017-06-15T00:34:16.980Z,15.99
2017-06-15T00:34:21.399Z,16.01
2017-06-15T00:34:25.824Z,16.03
2017-06-15T00:34:30.143Z,16.01
2017-06-15T00:34:34.443Z,16.03
2017-06-15T00:34:38.871Z,15.99
2017-06-15T00:34:43.061Z,16.11
2017-06-15T00:34:47.493Z,15.99
2017-06-15T00:34:51.928Z,16.01
2017-06-15T00:34:56.350Z,15.98
2017-06-15T00:35:00.772Z,15.98
2017-06-15T00:35:04.961Z,16.03
2017-06-15T00:35:09.274Z,15.99
2017-06-15T00:35:13.584Z,16.07
2017-06-15T00:35:18.013Z,16.04
2017-06-15T00:35:22.435Z,16.06
2017-06-15T00:35:26.857Z,15.99
2017-06-15T00:35:31.287Z,15.98
2017-06-15T00:35:35.511Z,16.01
2017-06-15T00:35:39.816Z,16.03
2017-06-15T00:35:44.237Z,16.01
2017-06-15T00:35:48.653Z,16.01
2017-06-15T00:35:53.086Z,16.03
2017-06-15T00:35:57.282Z,15.98
2017-06-15T00:36:01.709Z,16.03
2017-06-15T00:36:06.365Z,15.99
2017-06-15T00:36:10.561Z,16.04
2017-06-15T00:36:14.979Z,15.99
2017-06-15T00:36:19.409Z,16.01
2017-06-15T00:36:23.839Z,15.99
2017-06-15T00:36:28.145Z,15.98
2017-06-15T00:36:32.562Z,15.95
2017-06-15T00:36:36.748Z,16.07
2017-06-15T00:36:41.059Z,15.98
2017-06-15T00:36:45.486Z,16.03
2017-06-15T00:36:49.908Z,16.07
2017-06-15T00:36:54.336Z,16.01
2017-06-15T00:36:58.640Z,16.01
2017-06-15T00:37:03.146Z,16.01
2017-06-15T00:37:07.578Z,15.96
2017-06-15T00:37:12.002Z,16.06
2017-06-15T00:37:16.304Z,16.04
2017-06-15T00:37:20.734Z,16.11
2017-06-15T00:37:25.153Z,16.04
2017-06-15T00:37:29.593Z,16.01
2017-06-15T00:37:34.019Z,15.99
2017-06-15T00:37:38.209Z,16.06
2017-06-15T00:37:42.517Z,16.07
2017-06-15T00:37:46.947Z,16.04
2017-06-15T00:37:51.253Z,16.04
2017-06-15T00:37:55.680Z,16.01
2017-06-15T00:38:00.102Z,16.01
2017-06-15T00:38:04.525Z,16.04
2017-06-15T00:38:08.957Z,15.99
2017-06-15T00:38:13.261Z,16.07
2017-06-15T00:38:17.460Z,16.04
2017-06-15T00:38:21.889Z,16.03
2017-06-15T00:38:26.074Z,16.04
2017-06-15T00:38:30.494Z,16.03
2017-06-15T00:38:34.917Z,16.01
2017-06-15T00:38:39.342Z,16.03
2017-06-15T00:38:43.765Z,16.04
2017-06-15T00:38:48.188Z,16.07
2017-06-15T00:38:52.612Z,16.04
2017-06-15T00:38:57.045Z,15.98
2017-06-15T00:39:01.471Z,16.06
2017-06-15T00:39:05.911Z,15.99
2017-06-15T00:39:10.333Z,15.98
2017-06-15T00:39:14.643Z,16.04
2017-06-15T00:39:18.949Z,16.01
2017-06-15T00:39:23.253Z,16.06
2017-06-15T00:39:27.560Z,16.11
2017-06-15T00:39:32.036Z,16.06
2017-06-15T00:39:36.342Z,16.07
2017-06-15T00:39:40.766Z,15.99
2017-06-15T00:39:45.188Z,16.04
2017-06-15T00:39:49.615Z,16.11
2017-06-15T00:39:54.046Z,16.04
2017-06-15T00:39:58.478Z,16.03
2017-06-15T00:40:02.902Z,15.99
2017-06-15T00:40:07.094Z,16.01
2017-06-15T00:40:11.404Z,16.01
2017-06-15T00:40:15.718Z,15.96
2017-06-15T00:40:20.032Z,16.06
2017-06-15T00:40:24.457Z,16.07
2017-06-15T00:40:28.906Z,16.01
2017-06-15T00:40:33.329Z,16.01
2017-06-15T00:40:37.635Z,15.96
2017-06-15T00:40:42.061Z,15.98
2017-06-15T00:40:46.483Z,16.03
2017-06-15T00:40:50.912Z,16.01
2017-06-15T00:40:55.334Z,15.95
2017-06-15T00:40:59.524Z,16.03
2017-06-15T00:41:03.952Z,15.99
2017-06-15T00:41:08.375Z,16.04
2017-06-15T00:41:12.798Z,16.03
2017-06-15T00:41:16.863Z,16.04
2017-06-15T00:41:21.289Z,15.96
2017-06-15T00:41:25.715Z,16.07
2017-06-15T00:41:30.177Z,15.96
2017-06-15T00:41:34.607Z,15.98
2017-06-15T00:41:38.912Z,15.99
2017-06-15T00:41:43.216Z,15.98
2017-06-15T00:41:47.638Z,15.99
2017-06-15T00:41:52.059Z,15.98
2017-06-15T00:41:56.482Z,15.99
2017-06-15T00:42:00.699Z,16.01
2017-06-15T00:42:05.119Z,16.07
2017-06-15T00:42:09.421Z,16.01
2017-06-15T00:42:13.723Z,16.07
2017-06-15T00:42:18.150Z,16.08
2017-06-15T00:42:22.573Z,15.98
2017-06-15T00:42:27.001Z,15.96
2017-06-15T00:42:31.421Z,16.04
2017-06-15T00:42:35.847Z,15.95
2017-06-15T00:42:40.151Z,16.03
2017-06-15T00:42:44.579Z,15.98
2017-06-15T00:42:48.924Z,16.07
2017-06-15T00:42:53.230Z,15.99
2017-06-15T00:42:57.655Z,16.04
2017-06-15T00:43:02.075Z,15.99
2017-06-15T00:43:06.504Z,15.98
2017-06-15T00:43:10.930Z,16.13
2017-06-15T00:43:15.356Z,15.96
2017-06-15T00:43:19.782Z,16.04
2017-06-15T00:43:24.208Z,16.1
2017-06-15T00:43:28.647Z,16.06
2017-06-15T00:43:33.072Z,16.14
2017-06-15T00:43:37.262Z,15.98
2017-06-15T00:43:41.565Z,16.08
2017-06-15T00:43:45.992Z,16.06
2017-06-15T00:43:50.295Z,15.98
2017-06-15T00:43:54.599Z,16.01
2017-06-15T00:43:58.912Z,16.01
2017-06-15T00:44:03.305Z,15.95
2017-06-15T00:44:07.606Z,16.1
2017-06-15T00:44:12.027Z,15.88
2017-06-15T00:44:16.339Z,15.96
2017-06-15T00:44:20.664Z,16.1
2017-06-15T00:44:25.091Z,15.98
2017-06-15T00:44:29.527Z,16.08
2017-06-15T00:44:33.960Z,16.01
2017-06-15T00:44:38.152Z,15.95
2017-06-15T00:44:42.577Z,16.08
2017-06-15T00:44:47.044Z,16.07
2017-06-15T00:44:51.350Z,16.08
2017-06-15T00:44:55.774Z,16.07
2017-06-15T00:45:00.204Z,16.04
2017-06-15T00:45:04.589Z,16.08
2017-06-15T00:45:09.017Z,15.95
2017-06-15T00:45:13.453Z,16.04
2017-06-15T00:45:17.758Z,15.96
2017-06-15T00:45:21.950Z,16.11
2017-06-15T00:45:26.257Z,15.96
2017-06-15T00:45:30.679Z,15.99
2017-06-15T00:45:35.112Z,16.1
2017-06-15T00:45:39.534Z,16.01
2017-06-15T00:45:43.956Z,16.06
2017-06-15T00:45:48.373Z,15.93
2017-06-15T00:45:52.683Z,16.1
2017-06-15T00:45:57.107Z,16.06
2017-06-15T00:46:01.422Z,16.1
2017-06-15T00:46:05.902Z,15.95
2017-06-15T00:46:10.326Z,16.13
2017-06-15T00:46:14.631Z,16.1
2017-06-15T00:46:19.060Z,16.1
2017-06-15T00:46:23.528Z,15.92
2017-06-15T00:46:27.958Z,16.01
2017-06-15T00:46:32.379Z,15.95
2017-06-15T00:46:36.799Z,16.11
2017-06-15T00:46:41.103Z,16.1
2017-06-15T00:46:45.411Z,15.89
2017-06-15T00:46:49.734Z,16.03
2017-06-15T00:46:54.159Z,16.08
2017-06-15T00:46:58.582Z,16.07
2017-06-15T00:47:02.881Z,15.99
2017-06-15T00:47:07.304Z,16.03
2017-06-15T00:47:11.757Z,16.04
2017-06-15T00:47:16.065Z,16.07
2017-06-15T00:47:20.489Z,15.95
2017-06-15T00:47:24.913Z,15.95
2017-06-15T00:47:29.338Z,16.07
2017-06-15T00:47:33.804Z,16.03
2017-06-15T00:47:38.109Z,16.04
2017-06-15T00:47:42.531Z,15.92
2017-06-15T00:47:46.945Z,16.07
2017-06-15T00:47:51.131Z,16.03
2017-06-15T00:47:55.558Z,15.91
2017-06-15T00:47:59.982Z,15.88
2017-06-15T00:48:04.555Z,16.04
2017-06-15T00:48:08.976Z,16.06
2017-06-15T00:48:13.393Z,15.95
2017-06-15T00:48:17.581Z,16.04
2017-06-15T00:48:22.016Z,16.04
2017-06-15T00:48:26.434Z,16.04
2017-06-15T00:48:30.858Z,15.99
2017-06-15T00:48:35.277Z,15.88
2017-06-15T00:48:39.581Z,15.99
2017-06-15T00:48:43.886Z,16.07
2017-06-15T00:48:48.200Z,15.89
2017-06-15T00:48:52.541Z,15.96
2017-06-15T00:48:56.965Z,15.89
2017-06-15T00:49:01.387Z,16.04
2017-06-15T00:49:05.959Z,15.96
2017-06-15T00:49:10.382Z,15.99
2017-06-15T00:49:14.696Z,16.06
2017-06-15T00:49:18.998Z,15.99
2017-06-15T00:49:23.420Z,16.03
2017-06-15T00:49:27.846Z,15.86
2017-06-15T00:49:32.268Z,16.04
2017-06-15T00:49:36.705Z,16.06
2017-06-15T00:49:41.011Z,16.01
2017-06-15T00:49:45.429Z,16.07
2017-06-15T00:49:49.737Z,16.07
2017-06-15T00:49:54.052Z,15.89
2017-06-15T00:49:58.478Z,16.1
2017-06-15T00:50:02.908Z,15.91
2017-06-15T00:50:07.342Z,15.98
2017-06-15T00:50:11.529Z,15.93
2017-06-15T00:50:15.954Z,16.04
2017-06-15T00:50:20.375Z,16.08
2017-06-15T00:50:24.802Z,15.99
2017-06-15T00:50:29.264Z,15.91
2017-06-15T00:50:33.686Z,15.96
2017-06-15T00:50:37.991Z,15.95
2017-06-15T00:50:42.298Z,15.92
2017-06-15T00:50:46.721Z,15.91
2017-06-15T00:50:50.914Z,15.92
2017-06-15T00:50:55.265Z,15.95
2017-06-15T00:50:59.683Z,15.98
2017-06-15T00:51:04.206Z,15.93
2017-06-15T00:51:08.632Z,15.98
2017-06-15T00:51:13.060Z,15.92
2017-06-15T00:51:17.283Z,15.98
2017-06-15T00:51:21.707Z,16.01
2017-06-15T00:51:26.131Z,15.99
2017-06-15T00:51:30.461Z,16.03
2017-06-15T00:51:34.770Z,16.04
2017-06-15T00:51:39.200Z,15.95
2017-06-15T00:51:43.668Z,15.93
2017-06-15T00:51:48.088Z,16.07
2017-06-15T00:51:52.391Z,15.89
2017-06-15T00:51:56.817Z,16.01
2017-06-15T00:52:01.242Z,16.03
2017-06-15T00:52:05.485Z,15.95
2017-06-15T00:52:09.682Z,15.91
2017-06-15T00:52:14.105Z,15.92
2017-06-15T00:52:18.413Z,16.01
2017-06-15T00:52:22.833Z,15.92
2017-06-15T00:52:27.258Z,15.88
2017-06-15T00:52:31.700Z,15.99
2017-06-15T00:52:36.125Z,15.98
2017-06-15T00:52:40.545Z,16.03
2017-06-15T00:52:44.847Z,15.88
2017-06-15T00:52:49.268Z,15.91
2017-06-15T00:52:53.575Z,15.93
2017-06-15T00:52:57.922Z,15.92
2017-06-15T00:53:02.344Z,15.98
2017-06-15T00:53:06.771Z,16.08
2017-06-15T00:53:11.191Z,15.91
2017-06-15T00:53:15.498Z,16.07
2017-06-15T00:53:19.812Z,16.06
2017-06-15T00:53:24.231Z,16.03
2017-06-15T00:53:28.653Z,15.88
2017-06-15T00:53:33.077Z,16.01
2017-06-15T00:53:37.498Z,15.99
2017-06-15T00:53:41.690Z,15.91
2017-06-15T00:53:46.004Z,16.01
2017-06-15T00:53:50.191Z,16.07
2017-06-15T00:53:54.614Z,15.89
2017-06-15T00:53:58.915Z,16.06
2017-06-15T00:54:03.337Z,16.01
2017-06-15T00:54:07.789Z,16.07
2017-06-15T00:54:12.094Z,15.93
2017-06-15T00:54:16.511Z,15.98
2017-06-15T00:54:20.935Z,16.07
2017-06-15T00:54:25.360Z,15.98
2017-06-15T00:54:29.562Z,16.04
2017-06-15T00:54:33.987Z,15.95
2017-06-15T00:54:38.410Z,15.95
2017-06-15T00:54:42.830Z,15.95
2017-06-15T00:54:47.255Z,15.92
2017-06-15T00:54:51.566Z,16.01
2017-06-15T00:54:56.031Z,15.92
2017-06-15T00:55:00.339Z,16.07
2017-06-15T00:55:04.820Z,15.98
2017-06-15T00:55:09.241Z,16.07
2017-06-15T00:55:13.663Z,16.06
2017-06-15T00:55:17.867Z,16.07
2017-06-15T00:55:22.178Z,16.07
2017-06-15T00:55:26.600Z,15.91
2017-06-15T00:55:31.037Z,15.96
2017-06-15T00:55:35.458Z,16.06
2017-06-15T00:55:39.767Z,15.96
2017-06-15T00:55:44.190Z,15.99
2017-06-15T00:55:48.612Z,15.89
2017-06-15T00:55:53.033Z,16.06
2017-06-15T00:55:57.339Z,16.07
2017-06-15T00:56:01.762Z,15.95
2017-06-15T00:56:05.845Z,15.91
2017-06-15T00:56:10.157Z,15.95
2017-06-15T00:56:14.465Z,16.03
2017-06-15T00:56:18.883Z,16.07
2017-06-15T00:56:23.306Z,16.07
2017-06-15T00:56:27.613Z,16.08
2017-06-15T00:56:32.059Z,15.89